^^
Saratoga-Weather Station Historical Data
Daily Summary for June 27, 2022 Units:  Metric    English   Both
Daily Weekly Monthly Yearly Custom
  High: Low: Average:
Temperature: 20.9 °C 15 °C 17.1 °C
Dew Point: 16.5 °C 13.6 °C 14.8 °C
Humidity: 95% 70% 87%
Wind Speed: 17.7km/h 0km/h 2.9km/h
Wind Gust: 22.5km/h - -
Wind- - West
Pressure: 1020.3 hPa 1012.9 hPa -
Precipitation: 0.2 mm    
Historical Graphs
 
 
Tabular Data for June 27, 2022
Time Temperature Dew Point Pressure Wind Wind Speed Wind Gust Humidity Rainfall Rate (Hourly) solar
00:02 15.6 °C 14.6 °C 1013.2 hPa SW 1.4 km/h 1.6 km/h 94% 0.0 mm 0 W/m2
00:07 15.6 °C 14.6 °C 1013.2 hPa Calm     94% 0.0 mm 0 W/m2
00:12 15.6 °C 14.6 °C 1012.9 hPa Calm     94% 0.0 mm 0 W/m2
00:17 15.6 °C 14.6 °C 1012.9 hPa Calm     94% 0.0 mm 0 W/m2
00:22 15.6 °C 14.6 °C 1012.9 hPa Calm   1.6 km/h 94% 0.0 mm 0 W/m2
00:27 15.6 °C 14.6 °C 1012.9 hPa SW 1.4 km/h 3.2 km/h 94% 0.0 mm 0 W/m2
00:32 15.6 °C 14.6 °C 1012.9 hPa Calm     94% 0.0 mm 0 W/m2
00:37 15.5 °C 14.5 °C 1012.9 hPa Calm   3.2 km/h 94% 0.0 mm 0 W/m2
00:42 15.5 °C 14.5 °C 1013.2 hPa Calm     94% 0.0 mm 0 W/m2
00:47 15.4 °C 14.4 °C 1013.2 hPa Calm     94% 0.0 mm 0 W/m2
00:52 15.4 °C 14.4 °C 1013.2 hPa SW 1.4 km/h 1.6 km/h 94% 0.0 mm 0 W/m2
00:57 15.3 °C 14.3 °C 1013.2 hPa SW 1.4 km/h 1.6 km/h 94% 0.0 mm 0 W/m2
01:02 15.2 °C 14.2 °C 1013.2 hPa Calm   1.6 km/h 94% 0.0 mm 0 W/m2
01:07 15.2 °C 14.2 °C 1013.2 hPa Calm   1.6 km/h 94% 0.0 mm 0 W/m2
01:12 15.1 °C 14.1 °C 1013.2 hPa Calm   1.6 km/h 94% 0.0 mm 0 W/m2
01:17 15.1 °C 14.1 °C 1013.2 hPa Calm     94% 0.0 mm 0 W/m2
01:22 15 °C 14.2 °C 1013.5 hPa Calm     95% 0.0 mm 0 W/m2
01:27 15.1 °C 14.3 °C 1013.5 hPa Calm     95% 0.0 mm 0 W/m2
01:32 15.1 °C 14.3 °C 1013.2 hPa Calm     95% 0.0 mm 0 W/m2
01:37 15.1 °C 14.3 °C 1013.2 hPa SW 1.4 km/h 1.6 km/h 95% 0.0 mm 0 W/m2
01:42 15.2 °C 14.4 °C 1013.5 hPa West 4.7 km/h 9.7 km/h 95% 0.0 mm 0 W/m2
01:47 15.1 °C 14.3 °C 1013.5 hPa Calm   3.2 km/h 95% 0.0 mm 0 W/m2
01:52 15.1 °C 14.3 °C 1013.5 hPa Calm     95% 0.0 mm 0 W/m2
01:57 15.1 °C 14.3 °C 1013.9 hPa West 1.4 km/h 1.6 km/h 95% 0.0 mm 0 W/m2
02:02 15.1 °C 14.3 °C 1013.5 hPa WSW 3.2 km/h 4.8 km/h 95% 0.0 mm 0 W/m2
02:07 15.1 °C 14.3 °C 1013.5 hPa NW 4.7 km/h 4.8 km/h 95% 0.0 mm 0 W/m2
02:12 15.2 °C 14.4 °C 1013.5 hPa NW 1.4 km/h 3.2 km/h 95% 0.0 mm 0 W/m2
02:17 15.2 °C 14.4 °C 1013.5 hPa WNW 6.4 km/h 6.4 km/h 95% 0.0 mm 0 W/m2
02:22 15.2 °C 14.4 °C 1013.5 hPa WNW 3.2 km/h 4.8 km/h 95% 0.0 mm 0 W/m2
02:28 15.1 °C 14.3 °C 1013.5 hPa NNW 1.4 km/h 4.8 km/h 95% 0.0 mm 0 W/m2
02:33 15.1 °C 14.3 °C 1013.5 hPa Calm   3.2 km/h 95% 0.0 mm 0 W/m2
02:38 15.1 °C 14.3 °C 1013.5 hPa WNW 3.2 km/h 4.8 km/h 95% 0.0 mm 0 W/m2
02:43 15.1 °C 14.3 °C 1013.5 hPa WNW 3.2 km/h 4.8 km/h 95% 0.0 mm 0 W/m2
02:48 15.1 °C 14.3 °C 1013.2 hPa West 3.2 km/h 8 km/h 95% 0.0 mm 0 W/m2
02:53 15.1 °C 14.3 °C 1013.5 hPa West 4.7 km/h 4.8 km/h 95% 0.0 mm 0 W/m2
02:58 15.1 °C 14.3 °C 1013.9 hPa West 1.4 km/h 3.2 km/h 95% 0.0 mm 0 W/m2
03:03 15.1 °C 14.3 °C 1013.9 hPa WSW 6.4 km/h 6.4 km/h 95% 0.0 mm 0 W/m2
03:08 15.1 °C 14.3 °C 1013.9 hPa West 3.2 km/h 4.8 km/h 95% 0.0 mm 0 W/m2
03:13 15.1 °C 14.1 °C 1013.9 hPa West 4.7 km/h 6.4 km/h 94% 0.0 mm 0 W/m2
03:18 15.1 °C 14.1 °C 1014.2 hPa West 1.4 km/h 9.7 km/h 94% 0.0 mm 0 W/m2
03:23 15.2 °C 14.2 °C 1014.2 hPa West 3.2 km/h 3.2 km/h 94% 0.0 mm 0 W/m2
03:28 15.2 °C 14.2 °C 1013.9 hPa West 1.4 km/h 6.4 km/h 94% 0.0 mm 0 W/m2
03:33 15.2 °C 14.2 °C 1013.9 hPa SW 4.7 km/h 6.4 km/h 94% 0.0 mm 0 W/m2
03:38 15.2 °C 14.2 °C 1013.9 hPa West 4.7 km/h 4.8 km/h 94% 0.0 mm 0 W/m2
03:43 15.3 °C 14.3 °C 1013.9 hPa West 3.2 km/h 6.4 km/h 94% 0.0 mm 0 W/m2
03:48 15.3 °C 14.3 °C 1013.5 hPa West 9.7 km/h 9.7 km/h 94% 0.0 mm 0 W/m2
03:53 15.3 °C 14.3 °C 1013.5 hPa West 4.7 km/h 9.7 km/h 94% 0.0 mm 0 W/m2
03:58 15.3 °C 14.3 °C 1013.5 hPa West 3.2 km/h 6.4 km/h 94% 0.0 mm 0 W/m2
04:03 15.3 °C 14.2 °C 1013.5 hPa West 4.7 km/h 9.7 km/h 93% 0.0 mm 0 W/m2
04:08 15.3 °C 14.2 °C 1013.5 hPa WNW 6.4 km/h 6.4 km/h 93% 0.0 mm 0 W/m2
04:13 15.3 °C 14.2 °C 1013.5 hPa West 3.2 km/h 4.8 km/h 93% 0.0 mm 0 W/m2
04:18 15.3 °C 14.2 °C 1013.5 hPa West 3.2 km/h 6.4 km/h 93% 0.0 mm 0 W/m2
04:23 15.3 °C 14.2 °C 1013.5 hPa Calm   1.6 km/h 93% 0.0 mm 0 W/m2
04:28 15.4 °C 14.3 °C 1013.5 hPa Calm   1.6 km/h 93% 0.0 mm 0 W/m2
04:33 15.4 °C 14.3 °C 1013.2 hPa Calm     93% 0.0 mm 0 W/m2
04:38 15.4 °C 14.3 °C 1013.2 hPa Calm   1.6 km/h 93% 0.0 mm 0 W/m2
04:43 15.4 °C 14.3 °C 1013.2 hPa Calm     93% 0.0 mm 0 W/m2
04:48 15.3 °C 14.2 °C 1013.2 hPa Calm     93% 0.0 mm 0 W/m2
04:53 15.3 °C 14.2 °C 1013.5 hPa Calm     93% 0.0 mm 0 W/m2
04:58 15.3 °C 14.2 °C 1013.2 hPa Calm     93% 0.0 mm 0 W/m2
05:03 15.3 °C 14.3 °C 1013.2 hPa Calm   3.2 km/h 94% 0.0 mm 0 W/m2
05:08 15.2 °C 14.2 °C 1013.2 hPa West 3.2 km/h 4.8 km/h 94% 0.0 mm 0 W/m2
05:13 15.2 °C 14.2 °C 1013.5 hPa Calm   3.2 km/h 94% 0.0 mm 0 W/m2
05:18 15.2 °C 14.2 °C 1013.5 hPa Calm     94% 0.0 mm 0 W/m2
05:23 15.2 °C 14.2 °C 1013.5 hPa Calm     94% 0.0 mm 0 W/m2
05:28 15.2 °C 14.2 °C 1013.9 hPa SW 1.4 km/h 3.2 km/h 94% 0.0 mm 0 W/m2
05:33 15.2 °C 14.2 °C 1013.9 hPa Calm     94% 0.0 mm 0 W/m2
05:38 15.2 °C 14.2 °C 1013.5 hPa NW 1.4 km/h 8 km/h 94% 0.0 mm 0 W/m2
05:43 15.2 °C 14.2 °C 1013.5 hPa NW 1.4 km/h 1.6 km/h 94% 0.0 mm 0 W/m2
05:48 15.2 °C 14.2 °C 1013.5 hPa Calm   8 km/h 94% 0.0 mm 5 W/m2
05:53 15.2 °C 14.2 °C 1013.5 hPa Calm     94% 0.0 mm 14 W/m2
05:58 15.2 °C 14.2 °C 1013.5 hPa Calm     94% 0.0 mm 25 W/m2
06:03 15.2 °C 14.2 °C 1013.2 hPa Calm   1.6 km/h 94% 0.0 mm 23 W/m2
06:08 15.2 °C 14.2 °C 1013.2 hPa NE 1.4 km/h 3.2 km/h 94% 0.0 mm 18 W/m2
06:13 15.2 °C 14.2 °C 1012.9 hPa NNW 1.4 km/h 3.2 km/h 94% 0.0 mm 14 W/m2
06:18 15.1 °C 14.1 °C 1012.9 hPa WNW 1.4 km/h 6.4 km/h 94% 0.0 mm 28 W/m2
06:23 15.1 °C 14.1 °C 1012.9 hPa WNW 3.2 km/h 4.8 km/h 94% 0.0 mm 35 W/m2
06:28 15.2 °C 14.2 °C 1013.2 hPa Calm   6.4 km/h 94% 0.0 mm 63 W/m2
06:33 15.2 °C 14.2 °C 1013.2 hPa Calm     94% 0.0 mm 54 W/m2
06:38 15.2 °C 14.2 °C 1013.2 hPa Calm     94% 0.0 mm 30 W/m2
06:43 15.2 °C 14.2 °C 1013.5 hPa Calm     94% 0.0 mm 23 W/m2
06:48 15.3 °C 14.3 °C 1013.5 hPa West 1.4 km/h 3.2 km/h 94% 0.0 mm 37 W/m2
06:53 15.3 °C 14.3 °C 1013.5 hPa Calm   4.8 km/h 94% 0.0 mm 32 W/m2
06:58 15.3 °C 14.3 °C 1013.5 hPa Calm   6.4 km/h 94% 0.0 mm 33 W/m2
07:03 15.2 °C 14.2 °C 1013.9 hPa Calm     94% 0.0 mm 23 W/m2
07:08 15.3 °C 14.3 °C 1013.9 hPa Calm   6.4 km/h 94% 0.0 mm 21 W/m2
07:13 15.2 °C 14.2 °C 1014.2 hPa West 3.2 km/h 9.7 km/h 94% 0.0 mm 33 W/m2
07:18 15.2 °C 14.2 °C 1014.6 hPa WNW 1.4 km/h 11.3 km/h 94% 0.0 mm 51 W/m2
07:23 15.1 °C 14.1 °C 1014.6 hPa NW 1.4 km/h 6.4 km/h 94% 0.0 mm 33 W/m2
07:28 15.1 °C 14 °C 1014.2 hPa WNW 4.7 km/h 8 km/h 93% 0.0 mm 32 W/m2
07:33 15.1 °C 14 °C 1014.2 hPa NW 3.2 km/h 3.2 km/h 93% 0.0 mm 37 W/m2
07:38 15.1 °C 14 °C 1014.6 hPa West 6.4 km/h 11.3 km/h 93% 0.0 mm 33 W/m2
07:43 15.1 °C 14 °C 1013.9 hPa WNW 1.4 km/h 8 km/h 93% 0.0 mm 40 W/m2
07:48 15.1 °C 14 °C 1013.5 hPa NW 3.2 km/h 4.8 km/h 93% 0.0 mm 65 W/m2
07:53 15.1 °C 14 °C 1013.5 hPa WNW 3.2 km/h 8 km/h 93% 0.0 mm 72 W/m2
07:58 15.2 °C 14.2 °C 1013.2 hPa Calm   3.2 km/h 94% 0.0 mm 97 W/m2
08:03 15.2 °C 14.2 °C 1013.5 hPa WNW 1.4 km/h 3.2 km/h 94% 0.0 mm 86 W/m2
08:08 15.2 °C 14.2 °C 1013.9 hPa Calm     94% 0.0 mm 90 W/m2
08:13 15.3 °C 14.3 °C 1013.9 hPa WSW 4.7 km/h 4.8 km/h 94% 0.0 mm 118 W/m2
08:18 15.3 °C 14.2 °C 1014.2 hPa West 1.4 km/h 1.6 km/h 93% 0.0 mm 127 W/m2
08:23 15.4 °C 14.3 °C 1014.2 hPa West 1.4 km/h 1.6 km/h 93% 0.0 mm 116 W/m2
08:28 15.5 °C 14.4 °C 1014.2 hPa Calm     93% 0.0 mm 100 W/m2
08:33 15.6 °C 14.5 °C 1014.6 hPa WNW 4.7 km/h 9.7 km/h 93% 0.0 mm 67 W/m2
08:38 15.7 °C 14.6 °C 1014.6 hPa Calm   4.8 km/h 93% 0.0 mm 79 W/m2
08:43 15.7 °C 14.4 °C 1014.6 hPa West 1.4 km/h 3.2 km/h 92% 0.0 mm 109 W/m2
08:48 15.8 °C 14.5 °C 1014.6 hPa WNW 1.4 km/h 4.8 km/h 92% 0.0 mm 102 W/m2
08:53 15.8 °C 14.5 °C 1014.6 hPa WNW 1.4 km/h 6.4 km/h 92% 0.0 mm 84 W/m2
08:58 15.8 °C 14.5 °C 1014.6 hPa Calm     92% 0.0 mm 105 W/m2
09:03 15.9 °C 14.6 °C 1014.6 hPa Calm   6.4 km/h 92% 0.0 mm 121 W/m2
09:08 15.9 °C 14.6 °C 1014.9 hPa WSW 3.2 km/h 8 km/h 92% 0.0 mm 79 W/m2
09:13 16.1 °C 14.8 °C 1015.2 hPa Calm   4.8 km/h 92% 0.0 mm 40 W/m2
09:18 16.1 °C 14.6 °C 1015.2 hPa WSW 1.4 km/h 4.8 km/h 91% 0.0 mm 46 W/m2
09:23 16 °C 14.5 °C 1015.6 hPa NW 7.9 km/h 8 km/h 91% 0.0 mm 49 W/m2
09:28 15.9 °C 14.4 °C 1015.6 hPa WNW 4.7 km/h 6.4 km/h 91% 0.0 mm 51 W/m2
09:33 15.9 °C 14.4 °C 1015.2 hPa WSW 4.7 km/h 11.3 km/h 91% 0.0 mm 51 W/m2
09:38 15.8 °C 14.3 °C 1015.6 hPa West 6.4 km/h 11.3 km/h 91% 0.0 mm 58 W/m2
09:43 15.8 °C 14.5 °C 1015.2 hPa West 6.4 km/h 9.7 km/h 92% 0.0 mm 76 W/m2
09:49 15.7 °C 14.4 °C 1015.2 hPa WNW 6.4 km/h 9.7 km/h 92% 0.0 mm 70 W/m2
09:54 15.7 °C 14.4 °C 1015.6 hPa WNW 1.4 km/h 6.4 km/h 92% 0.0 mm 58 W/m2
09:59 15.7 °C 14.4 °C 1015.6 hPa WNW 1.4 km/h 4.8 km/h 92% 0.2 mm 83 W/m2
10:04 15.7 °C 14.4 °C 1015.6 hPa West 1.4 km/h 3.2 km/h 92% 0.2 mm 69 W/m2
10:09 15.7 °C 14.4 °C 1015.6 hPa West 1.4 km/h 3.2 km/h 92% 0.2 mm 95 W/m2
10:14 15.8 °C 14.5 °C 1015.6 hPa WNW 3.2 km/h 4.8 km/h 92% 0.2 mm 127 W/m2
10:19 15.8 °C 14.5 °C 1015.9 hPa WNW 1.4 km/h 3.2 km/h 92% 0.2 mm 109 W/m2
10:24 15.9 °C 14.6 °C 1015.6 hPa NNW 6.4 km/h 9.7 km/h 92% 0.2 mm 93 W/m2
10:29 15.9 °C 14.6 °C 1015.6 hPa WNW 3.2 km/h 9.7 km/h 92% 0.2 mm 86 W/m2
10:34 15.9 °C 14.6 °C 1015.6 hPa WNW 1.4 km/h 6.4 km/h 92% 0.2 mm 91 W/m2
10:39 16 °C 14.7 °C 1015.9 hPa West 3.2 km/h 8 km/h 92% 0.2 mm 91 W/m2
10:44 16 °C 14.7 °C 1016.3 hPa West 4.7 km/h 4.8 km/h 92% 0.2 mm 111 W/m2
10:49 16.1 °C 14.8 °C 1015.9 hPa NW 1.4 km/h 9.7 km/h 92% 0.2 mm 132 W/m2
10:54 16.1 °C 14.8 °C 1015.9 hPa SW 1.4 km/h 3.2 km/h 92% 0.2 mm 183 W/m2
10:59 16.2 °C 14.9 °C 1015.9 hPa WNW 1.4 km/h 9.7 km/h 92% 0.0 mm 148 W/m2
11:04 16.3 °C 15 °C 1016.3 hPa West 1.4 km/h 3.2 km/h 92% 0.0 mm 95 W/m2
11:09 16.3 °C 14.8 °C 1016.3 hPa Calm   4.8 km/h 91% 0.0 mm 100 W/m2
11:14 16.4 °C 15.1 °C 1016.3 hPa Calm     92% 0.0 mm 111 W/m2
11:19 16.5 °C 15.2 °C 1016.3 hPa ESE 3.2 km/h 4.8 km/h 92% 0.0 mm 135 W/m2
11:24 16.5 °C 15 °C 1016.3 hPa ESE 1.4 km/h 4.8 km/h 91% 0.0 mm 176 W/m2
11:29 16.6 °C 15.1 °C 1016.3 hPa ESE 1.4 km/h 1.6 km/h 91% 0.0 mm 162 W/m2
11:34 16.6 °C 15.1 °C 1016.3 hPa Calm   4.8 km/h 91% 0.0 mm 153 W/m2
11:39 16.7 °C 15.2 °C 1016.3 hPa West 1.4 km/h 3.2 km/h 91% 0.0 mm 139 W/m2
11:44 16.7 °C 15.2 °C 1016.3 hPa Calm   1.6 km/h 91% 0.0 mm 151 W/m2
11:49 16.8 °C 15.3 °C 1016.3 hPa West 1.4 km/h 1.6 km/h 91% 0.0 mm 204 W/m2
11:54 16.9 °C 15.4 °C 1016.3 hPa West 4.7 km/h 4.8 km/h 91% 0.0 mm 323 W/m2
11:59 17.1 °C 15.6 °C 1016.3 hPa WNW 3.2 km/h 4.8 km/h 91% 0.0 mm 267 W/m2
12:04 17.2 °C 15.5 °C 1016.6 hPa NW 3.2 km/h 8 km/h 90% 0.0 mm 213 W/m2
12:09 17.2 °C 15.5 °C 1016.6 hPa WSW 3.2 km/h 6.4 km/h 90% 0.0 mm 158 W/m2
12:14 17.3 °C 15.5 °C 1016.3 hPa WSW 1.4 km/h 3.2 km/h 89% 0.0 mm 207 W/m2
12:19 17.4 °C 15.7 °C 1016.3 hPa WSW 1.4 km/h 1.6 km/h 90% 0.0 mm 236 W/m2
12:24 17.6 °C 15.8 °C 1016.3 hPa WNW 4.7 km/h 4.8 km/h 89% 0.0 mm 209 W/m2
12:29 17.7 °C 15.7 °C 1016.3 hPa WNW 4.7 km/h 6.4 km/h 88% 0.0 mm 211 W/m2
12:34 17.7 °C 15.7 °C 1016.3 hPa NW 3.2 km/h 6.4 km/h 88% 0.0 mm 181 W/m2
12:39 17.8 °C 15.8 °C 1016.3 hPa WNW 1.4 km/h 3.2 km/h 88% 0.0 mm 149 W/m2
12:44 17.8 °C 15.6 °C 1016.3 hPa West 3.2 km/h 3.2 km/h 87% 0.0 mm 148 W/m2
12:49 17.8 °C 15.6 °C 1016.3 hPa NE 1.4 km/h 4.8 km/h 87% 0.0 mm 171 W/m2
12:54 17.8 °C 15.6 °C 1016.3 hPa WNW 3.2 km/h 6.4 km/h 87% 0.0 mm 272 W/m2
12:59 17.8 °C 15.8 °C 1016.3 hPa West 1.4 km/h 4.8 km/h 88% 0.0 mm 318 W/m2
13:04 17.9 °C 15.7 °C 1016.3 hPa WNW 3.2 km/h 4.8 km/h 87% 0.0 mm 283 W/m2
13:09 18 °C 15.8 °C 1016.6 hPa NW 3.2 km/h 11.3 km/h 87% 0.0 mm 260 W/m2
13:14 18.1 °C 16.1 °C 1016.6 hPa Calm   4.8 km/h 88% 0.0 mm 243 W/m2
13:19 18.2 °C 15.8 °C 1016.6 hPa West 3.2 km/h 6.4 km/h 86% 0.0 mm 179 W/m2
13:24 18.2 °C 15.8 °C 1016.6 hPa NW 4.7 km/h 11.3 km/h 86% 0.0 mm 132 W/m2
13:29 18.2 °C 15.8 °C 1016.3 hPa Calm   1.6 km/h 86% 0.0 mm 139 W/m2
13:34 18.2 °C 16 °C 1016.3 hPa West 4.7 km/h 11.3 km/h 87% 0.0 mm 200 W/m2
13:39 18.3 °C 15.9 °C 1016.3 hPa Calm   1.6 km/h 86% 0.0 mm 162 W/m2
13:44 18.3 °C 15.9 °C 1016.6 hPa WNW 7.9 km/h 9.7 km/h 86% 0.0 mm 225 W/m2
13:49 18.4 °C 16 °C 1016.3 hPa NW 3.2 km/h 6.4 km/h 86% 0.0 mm 308 W/m2
13:54 18.5 °C 15.9 °C 1016.3 hPa WNW 3.2 km/h 6.4 km/h 85% 0.0 mm 271 W/m2
13:59 18.6 °C 16 °C 1016.3 hPa NW 6.4 km/h 6.4 km/h 85% 0.0 mm 309 W/m2
14:04 18.7 °C 16.1 °C 1016.6 hPa WNW 3.2 km/h 6.4 km/h 85% 0.0 mm 285 W/m2
14:09 18.8 °C 16.2 °C 1016.6 hPa West 3.2 km/h 6.4 km/h 85% 0.0 mm 388 W/m2
14:14 19.2 °C 16.2 °C 1016.6 hPa Calm   17.7 km/h 83% 0.0 mm 336 W/m2
14:19 19.3 °C 16.3 °C 1016.6 hPa West 3.2 km/h 14.5 km/h 83% 0.0 mm 422 W/m2
14:24 19.4 °C 16.4 °C 1016.9 hPa WNW 4.7 km/h 9.7 km/h 83% 0.0 mm 315 W/m2
14:29 19.6 °C 16.4 °C 1016.9 hPa West 4.7 km/h 14.5 km/h 82% 0.0 mm 301 W/m2
14:34 19.7 °C 16.5 °C 1016.9 hPa ENE 1.4 km/h 12.9 km/h 82% 0.0 mm 325 W/m2
14:39 19.7 °C 16.3 °C 1016.9 hPa WSW 3.2 km/h 9.7 km/h 81% 0.0 mm 448 W/m2
14:44 19.9 °C 16.3 °C 1016.9 hPa North 3.2 km/h 6.4 km/h 80% 0.0 mm 615 W/m2
14:49 20.3 °C 16.5 °C 1016.6 hPa WSW 6.4 km/h 14.5 km/h 79% 0.0 mm 874 W/m2
14:54 20.6 °C 16.4 °C 1016.6 hPa West 9.7 km/h 19.3 km/h 77% 0.0 mm 1088 W/m2
14:59 20.8 °C 16.4 °C 1016.9 hPa West 13 km/h 16.1 km/h 76% 0.0 mm 464 W/m2
15:04 20.9 °C 16.3 °C 1016.9 hPa WSW 6.4 km/h 19.3 km/h 75% 0.0 mm 417 W/m2
15:09 20.6 °C 15.8 °C 1017.3 hPa WSW 17.7 km/h 22.5 km/h 74% 0.0 mm 327 W/m2
15:14 20.3 °C 15.7 °C 1017.3 hPa NNW 14.3 km/h 14.5 km/h 75% 0.0 mm 353 W/m2
15:19 20.5 °C 15.9 °C 1017.3 hPa WSW 13 km/h 22.5 km/h 75% 0.0 mm 499 W/m2
15:24 20.5 °C 15.7 °C 1017.3 hPa SW 13 km/h 20.9 km/h 74% 0.0 mm 512 W/m2
15:29 20.4 °C 15.8 °C 1017.3 hPa West 4.7 km/h 11.3 km/h 75% 0.0 mm 301 W/m2
15:34 20.3 °C 15.7 °C 1017.3 hPa West 11.1 km/h 20.9 km/h 75% 0.0 mm 343 W/m2
15:39 20.2 °C 15.8 °C 1017.3 hPa NW 4.7 km/h 11.3 km/h 76% 0.0 mm 791 W/m2
15:44 20.4 °C 16 °C 1017.3 hPa WNW 4.7 km/h 16.1 km/h 76% 0.0 mm 1223 W/m2
15:49 20.6 °C 16 °C 1017.3 hPa NW 13 km/h 19.3 km/h 75% 0.0 mm 1107 W/m2
15:54 20.8 °C 16 °C 1017.3 hPa NW 16.3 km/h 16.1 km/h 74% 0.0 mm 947 W/m2
15:59 20.9 °C 15.9 °C 1017.3 hPa West 9.7 km/h 16.1 km/h 73% 0.0 mm 1035 W/m2
16:04 20.9 °C 15.9 °C 1017.6 hPa WNW 4.7 km/h 16.1 km/h 73% 0.0 mm 239 W/m2
16:09 20.6 °C 15.8 °C 1017.6 hPa WSW 7.9 km/h 14.5 km/h 74% 0.0 mm 271 W/m2
16:14 20.5 °C 15.7 °C 1017.6 hPa WSW 4.7 km/h 14.5 km/h 74% 0.0 mm 232 W/m2
16:19 20.4 °C 15.6 °C 1017.6 hPa West 9.7 km/h 16.1 km/h 74% 0.0 mm 399 W/m2
16:24 20.6 °C 16 °C 1017.3 hPa WNW 13 km/h 14.5 km/h 75% 0.0 mm 875 W/m2
16:29 20.8 °C 15.8 °C 1017.6 hPa WSW 14.3 km/h 20.9 km/h 73% 0.0 mm 202 W/m2
16:34 20.7 °C 15.7 °C 1017.6 hPa NW 4.7 km/h 14.5 km/h 73% 0.0 mm 309 W/m2
16:39 20.6 °C 15.6 °C 1017.6 hPa West 11.1 km/h 20.9 km/h 73% 0.0 mm 380 W/m2
16:44 20.6 °C 15.6 °C 1017.6 hPa WNW 17.7 km/h 17.7 km/h 73% 0.0 mm 248 W/m2
16:49 20.3 °C 15.5 °C 1017.6 hPa West 13 km/h 17.7 km/h 74% 0.0 mm 151 W/m2
16:54 20.1 °C 15.5 °C 1017.6 hPa SW 6.4 km/h 12.9 km/h 75% 0.0 mm 199 W/m2
16:59 20.1 °C 15.7 °C 1017.6 hPa WSW 6.4 km/h 14.5 km/h 76% 0.0 mm 216 W/m2
17:04 20.1 °C 15.7 °C 1017.6 hPa NW 4.7 km/h 14.5 km/h 76% 0.0 mm 336 W/m2
17:09 20.2 °C 16 °C 1017.6 hPa West 4.7 km/h 9.7 km/h 77% 0.0 mm 436 W/m2
17:14 20.5 °C 16.1 °C 1017.6 hPa NNW 3.2 km/h 11.3 km/h 76% 0.0 mm 705 W/m2
17:19 20.8 °C 16.2 °C 1017.6 hPa WNW 11.1 km/h 16.1 km/h 75% 0.0 mm 471 W/m2
17:24 20.7 °C 15.9 °C 1018.0 hPa West 11.1 km/h 16.1 km/h 74% 0.0 mm 345 W/m2
17:29 20.4 °C 15.2 °C 1018.0 hPa WSW 7.9 km/h 17.7 km/h 72% 0.0 mm 204 W/m2
17:34 20.2 °C 15.2 °C 1018.0 hPa West 13 km/h 16.1 km/h 73% 0.0 mm 227 W/m2
17:39 19.9 °C 15.1 °C 1018.0 hPa NW 7.9 km/h 12.9 km/h 74% 0.0 mm 181 W/m2
17:44 19.8 °C 15.2 °C 1018.0 hPa West 13 km/h 16.1 km/h 75% 0.0 mm 232 W/m2
17:49 19.6 °C 15.3 °C 1018.0 hPa NW 9.7 km/h 17.7 km/h 76% 0.0 mm 127 W/m2
17:54 19.4 °C 15.3 °C 1018.0 hPa NW 7.9 km/h 14.5 km/h 77% 0.0 mm 171 W/m2
17:59 19.2 °C 15.5 °C 1018.0 hPa West 6.4 km/h 12.9 km/h 79% 0.0 mm 160 W/m2
18:04 19.2 °C 15.7 °C 1018.0 hPa West 4.7 km/h 11.3 km/h 80% 0.0 mm 185 W/m2
18:10 19.1 °C 15.4 °C 1018.0 hPa WNW 6.4 km/h 12.9 km/h 79% 0.0 mm 121 W/m2
18:15 18.9 °C 15 °C 1018.0 hPa NW 6.4 km/h 16.1 km/h 78% 0.0 mm 111 W/m2
18:20 18.9 °C 14.8 °C 1018.0 hPa NNW 6.4 km/h 9.7 km/h 77% 0.0 mm 137 W/m2
18:25 18.9 °C 14.8 °C 1018.3 hPa West 3.2 km/h 16.1 km/h 77% 0.0 mm 84 W/m2
18:30 18.9 °C 14.8 °C 1018.3 hPa WSW 1.4 km/h 8 km/h 77% 0.0 mm 118 W/m2
18:35 18.9 °C 14.8 °C 1018.6 hPa West 4.7 km/h 4.8 km/h 77% 0.0 mm 128 W/m2
18:40 18.9 °C 14.6 °C 1018.3 hPa SW 3.2 km/h 6.4 km/h 76% 0.0 mm 113 W/m2
18:45 18.9 °C 14.6 °C 1018.3 hPa WNW 6.4 km/h 9.7 km/h 76% 0.0 mm 104 W/m2
18:50 18.8 °C 14.5 °C 1018.6 hPa NNW 4.7 km/h 6.4 km/h 76% 0.0 mm 116 W/m2
18:55 18.9 °C 14.8 °C 1018.6 hPa NW 1.4 km/h 1.6 km/h 77% 0.0 mm 90 W/m2
19:00 18.9 °C 14.8 °C 1018.6 hPa NW 1.4 km/h 3.2 km/h 77% 0.0 mm 83 W/m2
19:05 18.9 °C 14.6 °C 1018.6 hPa West 1.4 km/h 4.8 km/h 76% 0.0 mm 95 W/m2
19:10 18.8 °C 14.7 °C 1018.6 hPa West 3.2 km/h 4.8 km/h 77% 0.0 mm 88 W/m2
19:15 18.8 °C 14.7 °C 1018.6 hPa West 4.7 km/h 6.4 km/h 77% 0.0 mm 84 W/m2
19:20 18.8 °C 14.7 °C 1018.6 hPa WSW 3.2 km/h 3.2 km/h 77% 0.0 mm 88 W/m2
19:25 18.8 °C 14.9 °C 1018.6 hPa WSW 1.4 km/h 1.6 km/h 78% 0.0 mm 97 W/m2
19:30 18.8 °C 14.7 °C 1018.6 hPa Calm   3.2 km/h 77% 0.0 mm 90 W/m2
19:35 18.8 °C 14.7 °C 1018.6 hPa West 1.4 km/h 4.8 km/h 77% 0.0 mm 90 W/m2
19:40 18.8 °C 14.5 °C 1018.6 hPa NW 3.2 km/h 4.8 km/h 76% 0.0 mm 97 W/m2
19:45 18.9 °C 14.8 °C 1018.6 hPa NW 1.4 km/h 3.2 km/h 77% 0.0 mm 98 W/m2
19:50 18.9 °C 14.6 °C 1018.6 hPa West 4.7 km/h 6.4 km/h 76% 0.0 mm 97 W/m2
19:55 18.9 °C 14.6 °C 1018.6 hPa West 1.4 km/h 6.4 km/h 76% 0.0 mm 102 W/m2
20:00 19 °C 14.3 °C 1018.6 hPa WSW 4.7 km/h 6.4 km/h 74% 0.0 mm 229 W/m2
20:05 19.2 °C 14.5 °C 1018.6 hPa NW 1.4 km/h 4.8 km/h 74% 0.0 mm 183 W/m2
20:10 19.4 °C 14.2 °C 1018.6 hPa NW 1.4 km/h 8 km/h 72% 0.0 mm 128 W/m2
20:15 19.6 °C 14 °C 1018.6 hPa NNW 1.4 km/h 6.4 km/h 70% 0.0 mm 120 W/m2
20:20 19.6 °C 14 °C 1019.0 hPa WNW 1.4 km/h 8 km/h 70% 0.0 mm 113 W/m2
20:25 19.5 °C 14.1 °C 1019.0 hPa Calm   3.2 km/h 71% 0.0 mm 88 W/m2
20:30 19.4 °C 14.2 °C 1019.0 hPa WNW 3.2 km/h 6.4 km/h 72% 0.0 mm 60 W/m2
20:35 19.3 °C 14.1 °C 1019.0 hPa Calm   1.6 km/h 72% 0.0 mm 44 W/m2
20:40 19.2 °C 14.2 °C 1019.0 hPa Calm   1.6 km/h 73% 0.0 mm 30 W/m2
20:45 19.2 °C 14.9 °C 1019.0 hPa Calm   1.6 km/h 76% 0.0 mm 72 W/m2
20:50 19.2 °C 15.1 °C 1019.0 hPa Calm     77% 0.0 mm 90 W/m2
20:55 19.2 °C 15.1 °C 1019.0 hPa Calm   1.6 km/h 77% 0.0 mm 65 W/m2
21:00 19.2 °C 15.3 °C 1019.0 hPa Calm     78% 0.0 mm 47 W/m2
21:05 19.2 °C 15.3 °C 1019.0 hPa Calm     78% 0.0 mm 25 W/m2
21:10 19.2 °C 15.1 °C 1019.0 hPa Calm     77% 0.0 mm 26 W/m2
21:15 19.1 °C 15 °C 1019.0 hPa Calm     77% 0.0 mm 11 W/m2
21:20 18.9 °C 14.8 °C 1019.0 hPa Calm     77% 0.0 mm 9 W/m2
21:25 18.7 °C 14.6 °C 1019.0 hPa Calm     77% 0.0 mm 7 W/m2
21:30 18.4 °C 14.5 °C 1019.3 hPa Calm     78% 0.0 mm 7 W/m2
21:35 18.3 °C 14.6 °C 1019.3 hPa Calm     79% 0.0 mm 5 W/m2
21:40 18.1 °C 14.4 °C 1019.3 hPa Calm     79% 0.0 mm 0 W/m2
21:45 17.7 °C 14.2 °C 1019.3 hPa Calm     80% 0.0 mm 0 W/m2
21:50 17.4 °C 14.1 °C 1019.6 hPa Calm     81% 0.0 mm 0 W/m2
21:55 17.3 °C 14 °C 1019.6 hPa Calm     81% 0.0 mm 0 W/m2
22:00 17.2 °C 14.1 °C 1019.6 hPa Calm     82% 0.0 mm 0 W/m2
22:05 17 °C 13.9 °C 1019.6 hPa Calm     82% 0.0 mm 0 W/m2
22:10 16.8 °C 13.7 °C 1019.6 hPa Calm     82% 0.0 mm 0 W/m2
22:15 16.7 °C 13.6 °C 1019.6 hPa Calm     82% 0.0 mm 0 W/m2
22:20 16.6 °C 13.7 °C 1020.0 hPa Calm   1.6 km/h 83% 0.0 mm 0 W/m2
22:25 16.4 °C 13.7 °C 1020.0 hPa Calm     84% 0.0 mm 0 W/m2
22:30 16.3 °C 13.6 °C 1020.0 hPa West 1.4 km/h 1.6 km/h 84% 0.0 mm 0 W/m2
22:35 16.2 °C 13.7 °C 1020.0 hPa Calm     85% 0.0 mm 0 W/m2
22:40 16.2 °C 13.7 °C 1020.0 hPa Calm     85% 0.0 mm 0 W/m2
22:45 16.2 °C 13.7 °C 1020.0 hPa Calm     85% 0.0 mm 0 W/m2
22:50 16.2 °C 13.9 °C 1020.0 hPa Calm     86% 0.0 mm 0 W/m2
22:55 16.2 °C 13.9 °C 1020.0 hPa Calm     86% 0.0 mm 0 W/m2
23:00 16.1 °C 13.8 °C 1020.3 hPa Calm     86% 0.0 mm 0 W/m2
23:05 16.1 °C 13.8 °C 1020.0 hPa Calm     86% 0.0 mm 0 W/m2
23:10 16.1 °C 13.8 °C 1020.3 hPa Calm     86% 0.0 mm 0 W/m2
23:15 16.2 °C 13.9 °C 1020.3 hPa Calm     86% 0.0 mm 0 W/m2
23:20 16.2 °C 14 °C 1020.3 hPa Calm   3.2 km/h 87% 0.0 mm 0 W/m2
23:25 16.3 °C 14 °C 1020.3 hPa West 1.4 km/h 1.6 km/h 86% 0.0 mm 0 W/m2
23:30 16.3 °C 14 °C 1020.3 hPa West 1.4 km/h 1.6 km/h 86% 0.0 mm 0 W/m2
23:35 16.4 °C 14.2 °C 1020.3 hPa Calm   1.6 km/h 87% 0.0 mm 0 W/m2
23:40 16.4 °C 14.1 °C 1020.3 hPa Calm     86% 0.0 mm 0 W/m2
23:45 16.4 °C 14.2 °C 1020.3 hPa Calm   1.6 km/h 87% 0.0 mm 0 W/m2
23:50 16.4 °C 14.2 °C 1020.3 hPa West 1.4 km/h 1.6 km/h 87% 0.0 mm 0 W/m2
23:55 16.4 °C 14.2 °C 1020.3 hPa Calm   1.6 km/h 87% 0.0 mm 0 W/m2
Juneau County Weather
Compliments of Weather Underground - 4 mb